Time;durP1;ratioP1;P1;durP2;ratioP2;P2;SDS_P1;SDS_P2;PMS_P1;PMS_P2;Temp;Humidity;BMP_temperature;BMP_pressure;BME280_temperature;BME280_humidity;BME280_pressure;Samples;Min_cycle;Max_cycle;Signal;HPM_P1;HPM_P2
2024/02/07 00:00:26;;;;;;;5.00;2.28;;;;;;;17.59;50.88;100312.66;5012419;28;20030;-64
2024/02/07 00:02:51;;;;;;;9.55;2.20;;;;;;;17.54;50.89;100319.66;5013824;28;20038;-62
2024/02/07 00:05:17;;;;;;;10.15;2.55;;;;;;;17.53;51.20;100310.69;4996089;28;20045;-62
2024/02/07 00:07:44;;;;;;;4.85;2.42;;;;;;;17.53;51.40;100316.09;5013478;28;20524;-62
2024/02/07 00:10:10;;;;;;;8.77;2.95;;;;;;;17.51;51.11;100317.28;4979989;28;20062;-62
2024/02/07 00:12:36;;;;;;;8.50;3.35;;;;;;;17.45;51.01;100318.88;4996179;28;20588;-63
2024/02/07 00:15:01;;;;;;;10.07;3.38;;;;;;;17.48;51.46;100313.09;4979253;28;20120;-62
2024/02/07 00:17:27;;;;;;;8.13;2.75;;;;;;;17.46;52.11;100317.84;4995509;28;20410;-63
2024/02/07 00:19:52;;;;;;;6.72;2.58;;;;;;;17.47;51.43;100296.00;4995673;28;20076;-63
2024/02/07 00:22:19;;;;;;;6.82;2.67;;;;;;;17.47;52.10;100300.59;5013529;28;20121;-63
2024/02/07 00:24:44;;;;;;;8.20;3.10;;;;;;;17.48;51.70;100294.13;4995764;28;20113;-63
2024/02/07 00:27:11;;;;;;;9.25;2.42;;;;;;;17.48;51.82;100303.09;4995718;28;20137;-63
2024/02/07 00:29:36;;;;;;;14.20;2.78;;;;;;;17.45;51.27;100308.03;4996038;28;20494;-64
2024/02/07 00:32:02;;;;;;;9.35;2.72;;;;;;;17.44;51.63;100292.84;5012199;28;20125;-64
2024/02/07 00:34:27;;;;;;;8.43;2.92;;;;;;;17.44;51.45;100290.13;4995906;28;20133;-64
2024/02/07 00:36:52;;;;;;;6.45;2.20;;;;;;;17.47;51.86;100292.47;4995739;28;20057;-64
2024/02/07 00:39:18;;;;;;;9.80;3.08;;;;;;;17.41;51.93;100291.34;5011864;28;20516;-64
2024/02/07 00:41:44;;;;;;;5.35;3.28;;;;;;;17.38;52.15;100280.03;5013292;28;20034;-64
2024/02/07 00:44:10;;;;;;;5.72;2.22;;;;;;;17.33;51.43;100287.88;4995932;28;20038;-65
2024/02/07 00:46:35;;;;;;;7.32;2.65;;;;;;;17.36;52.12;100295.63;5023065;28;20042;-64
2024/02/07 00:49:03;;;;;;;9.68;3.05;;;;;;;17.33;51.78;100285.19;4999620;28;20034;-64
2024/02/07 00:51:28;;;;;;;4.75;2.28;;;;;;;17.30;51.77;100272.00;4996303;28;20502;-65
2024/02/07 00:53:54;;;;;;;8.02;2.55;;;;;;;17.31;52.11;100284.50;5012360;28;20049;-64
2024/02/07 00:56:20;;;;;;;6.68;3.35;;;;;;;17.26;52.25;100281.53;5013229;28;20383;-64
2024/02/07 00:58:45;;;;;;;9.05;3.58;;;;;;;17.21;52.75;100263.13;5013086;28;20049;-65
2024/02/07 01:01:12;;;;;;;11.13;2.60;;;;;;;17.21;53.29;100267.72;5012155;28;20030;-64
2024/02/07 01:03:37;;;;;;;9.27;2.70;;;;;;;17.17;53.32;100255.59;4995580;28;20108;-65
2024/02/07 01:06:03;;;;;;;5.10;2.90;;;;;;;17.14;52.83;100255.97;5011941;28;20077;-65
2024/02/07 01:08:28;;;;;;;4.78;2.13;;;;;;;17.09;53.63;100252.94;5011507;28;20045;-64
2024/02/07 01:10:54;;;;;;;9.15;2.97;;;;;;;17.05;52.90;100236.25;5013484;28;20030;-64
2024/02/07 01:13:19;;;;;;;11.70;3.20;;;;;;;17.01;52.72;100242.19;5013170;28;20041;-65
2024/02/07 01:15:45;;;;;;;8.27;3.58;;;;;;;16.99;53.56;100242.41;5012224;28;20041;-64
2024/02/07 01:18:11;;;;;;;5.10;2.88;;;;;;;16.99;52.92;100245.09;5011904;28;20438;-66
2024/02/07 01:20:36;;;;;;;5.45;2.50;;;;;;;16.95;53.42;100234.81;4995842;28;20115;-66
2024/02/07 01:23:03;;;;;;;10.70;2.63;;;;;;;16.89;53.34;100231.00;5012097;28;20034;-65
2024/02/07 01:25:29;;;;;;;6.70;2.72;;;;;;;16.93;53.49;100228.75;5012141;28;20038;-66
2024/02/07 01:27:54;;;;;;;12.65;2.85;;;;;;;16.92;53.45;100229.81;5013518;28;20665;-66
2024/02/07 01:30:20;;;;;;;9.02;2.58;;;;;;;16.91;53.27;100222.69;4999416;28;20040;-67
2024/02/07 01:32:45;;;;;;;9.32;2.45;;;;;;;16.89;53.19;100228.28;5015814;28;20516;-66
2024/02/07 01:35:11;;;;;;;7.13;2.70;;;;;;;16.87;53.42;100216.81;5016796;28;20436;-66
2024/02/07 01:37:38;;;;;;;7.63;3.25;;;;;;;16.89;53.88;100231.84;5015638;28;20497;-67
2024/02/07 01:40:06;;;;;;;7.05;2.70;;;;;;;16.88;54.08;100224.75;4999550;28;20042;-65
2024/02/07 01:42:32;;;;;;;4.35;2.78;;;;;;;16.88;53.41;100197.72;4999484;28;20023;-66
2024/02/07 01:45:30;;;;;;;7.38;2.65;;;;;;;16.86;54.20;100221.38;5017185;28;20088;-66
2024/02/07 01:47:56;;;;;;;9.15;2.80;;;;;;;16.82;53.08;100232.75;5015253;28;20042;-67
2024/02/07 01:50:21;;;;;;;11.00;3.28;;;;;;;16.79;53.96;100209.63;4998833;28;20084;-67
2024/02/07 01:52:48;;;;;;;11.32;2.50;;;;;;;16.79;53.17;100209.63;4999488;28;20508;-72
2024/02/07 01:55:14;;;;;;;8.65;2.92;;;;;;;16.79;53.46;100219.59;5017275;28;20056;-71
2024/02/07 01:57:39;;;;;;;8.02;3.10;;;;;;;16.78;53.14;100212.50;4999892;28;20034;-71
2024/02/07 02:00:07;;;;;;;15.50;3.03;;;;;;;16.76;53.21;100199.19;4999974;28;20038;-71
2024/02/07 02:02:32;;;;;;;11.05;3.28;;;;;;;16.76;54.02;100193.78;4999449;28;20026;-70
2024/02/07 02:04:58;;;;;;;10.35;2.97;;;;;;;16.78;54.15;100191.72;4998240;28;20448;-71
2024/02/07 02:07:25;;;;;;;9.20;2.75;;;;;;;16.80;53.49;100205.91;4999461;28;20485;-71
2024/02/07 02:09:51;;;;;;;10.00;3.50;;;;;;;16.81;54.45;100201.31;5016903;28;20057;-72
2024/02/07 02:12:16;;;;;;;9.18;3.47;;;;;;;16.80;53.73;100186.97;4999398;28;20405;-71
2024/02/07 02:14:42;;;;;;;9.45;2.83;;;;;;;16.80;53.59;100189.69;5015557;28;20397;-71
2024/02/07 02:17:07;;;;;;;6.50;2.88;;;;;;;16.79;53.65;100177.16;4999841;28;20111;-71
2024/02/07 02:19:33;;;;;;;11.85;3.28;;;;;;;16.79;53.87;100173.63;4999144;28;20084;-71
2024/02/07 02:22:15;;;;;;;4.72;2.10;;;;;;;16.81;54.01;100168.84;4999164;28;20383;-71
2024/02/07 02:25:00;;;;;;;8.60;3.70;;;;;;;16.81;53.88;100161.59;4999311;28;20445;-71
2024/02/07 02:27:59;;;;;;;9.93;2.53;;;;;;;16.80;53.46;100157.22;4998870;28;20080;-72
2024/02/07 02:30:33;;;;;;;9.68;2.40;;;;;;;16.81;54.17;100169.69;4993618;28;20097;-72
2024/02/07 02:33:03;;;;;;;5.63;2.58;;;;;;;16.81;53.85;100175.09;5000131;28;20033;-72
2024/02/07 02:35:29;;;;;;;7.13;2.88;;;;;;;16.82;54.15;100155.16;4999213;28;20040;-73
2024/02/07 02:37:54;;;;;;;7.65;2.42;;;;;;;16.83;53.88;100148.72;4998327;28;20029;-74
2024/02/07 02:40:19;;;;;;;4.03;2.55;;;;;;;16.79;54.47;100150.13;4997771;28;20112;-74
2024/02/07 02:42:45;;;;;;;5.30;2.03;;;;;;;16.80;53.55;100159.94;4998778;28;20493;-73
2024/02/07 02:45:10;;;;;;;8.48;2.55;;;;;;;16.77;53.97;100141.38;5016053;28;20079;-76
2024/02/07 02:47:36;;;;;;;4.43;2.47;;;;;;;16.78;53.53;100151.13;5016408;28;20030;-73
2024/02/07 02:50:01;;;;;;;7.78;1.88;;;;;;;16.75;53.84;100159.63;4999032;28;20412;-74
2024/02/07 02:52:28;;;;;;;4.75;2.17;;;;;;;16.76;55.04;100144.22;4999054;28;20033;-74
2024/02/07 02:54:54;;;;;;;8.18;2.40;;;;;;;16.73;54.97;100142.75;5016217;28;20455;-76
2024/02/07 02:57:19;;;;;;;10.63;2.35;;;;;;;16.70;54.81;100135.00;4999187;28;20057;-76
2024/02/07 02:59:48;;;;;;;8.95;2.65;;;;;;;16.67;54.39;100140.78;4998938;28;20113;-76
2024/02/07 03:02:14;;;;;;;5.55;2.40;;;;;;;16.66;54.10;100136.41;5016161;28;20589;-74
2024/02/07 03:04:43;;;;;;;10.90;2.63;;;;;;;16.64;54.66;100130.31;4981297;28;20053;-68
2024/02/07 03:09:53;;;;;;;10.45;2.60;;;;;;;16.58;54.82;100119.44;5014539;28;20084;-68
2024/02/07 03:12:19;;;;;;;8.00;2.60;;;;;;;16.55;55.06;100131.47;4997590;28;20026;-68
2024/02/07 03:14:44;;;;;;;6.72;2.55;;;;;;;16.55;54.86;100126.06;4997399;28;20539;-68
2024/02/07 03:17:10;;;;;;;4.82;2.00;;;;;;;16.58;54.53;100125.66;5015099;28;20488;-67
2024/02/07 03:19:35;;;;;;;2.90;2.10;;;;;;;16.57;55.69;100126.69;4980670;28;20030;-67
2024/02/07 03:22:01;;;;;;;6.05;2.28;;;;;;;16.59;55.51;100130.03;4997206;28;20392;-68
2024/02/07 03:24:26;;;;;;;2.38;1.77;;;;;;;16.58;55.38;100122.13;4997290;28;20025;-69
2024/02/07 03:26:53;;;;;;;5.55;1.48;;;;;;;16.60;55.20;100128.19;5014804;28;20018;-68
2024/02/07 03:29:19;;;;;;;8.70;2.03;;;;;;;16.59;54.52;100116.53;5014903;28;20081;-68
2024/02/07 03:31:45;;;;;;;10.63;1.50;;;;;;;16.60;55.13;100111.97;4997102;28;20077;-68
2024/02/07 03:34:10;;;;;;;11.38;2.40;;;;;;;16.58;55.19;100098.59;4997146;28;20026;-69
2024/02/07 03:36:36;;;;;;;4.10;2.10;;;;;;;16.62;54.59;100094.53;4996829;28;20025;-68
2024/02/07 03:39:03;;;;;;;3.90;2.22;;;;;;;16.62;55.05;100105.34;5014277;28;20045;-68
2024/02/07 03:41:29;;;;;;;6.97;1.75;;;;;;;16.59;55.55;100089.50;4996778;28;20065;-68
2024/02/07 03:43:54;;;;;;;4.40;2.38;;;;;;;16.61;55.18;100075.78;4996797;28;20049;-68
2024/02/07 03:46:20;;;;;;;5.03;1.52;;;;;;;16.62;55.02;100078.31;4996775;28;20037;-68
2024/02/07 03:48:45;;;;;;;4.97;1.90;;;;;;;16.59;56.11;100069.72;5014376;28;20512;-67
2024/02/07 03:51:15;;;;;;;3.15;1.80;;;;;;;16.58;56.00;100082.38;4996084;28;20124;-67
2024/02/07 03:53:44;;;;;;;9.25;1.98;;;;;;;16.57;55.01;100091.53;4980811;28;20030;-68
2024/02/07 03:56:11;;;;;;;12.38;2.53;;;;;;;16.57;55.47;100083.44;5014391;28;20096;-68
2024/02/07 03:58:37;;;;;;;4.38;2.15;;;;;;;16.56;55.49;100068.22;4996712;28;20080;-68
2024/02/07 04:01:03;;;;;;;5.50;1.80;;;;;;;16.57;56.21;100072.63;4980125;28;20520;-68
2024/02/07 04:03:29;;;;;;;7.72;1.95;;;;;;;16.57;56.19;100069.91;4995145;28;20048;-68
2024/02/07 04:05:54;;;;;;;3.22;1.90;;;;;;;16.59;56.08;100069.72;5013479;28;20045;-68
2024/02/07 04:08:19;;;;;;;3.53;1.88;;;;;;;16.58;56.26;100054.53;4997372;28;20041;-68
2024/02/07 04:10:51;;;;;;;5.65;1.95;;;;;;;16.57;55.19;100051.00;4997784;28;20121;-68
2024/02/07 05:15:49;;;;;;;0.60;0.40;;;;;;;13.60;54.15;100202.22;5002706;28;20037;-68
2024/02/07 05:18:14;;;;;;;1.80;0.32;;;;;;;13.49;53.90;100186.38;4999399;28;20034;-68
2024/02/07 05:20:39;;;;;;;6.28;1.00;;;;;;;13.38;53.95;100191.06;5017262;28;20030;-67
2024/02/07 05:23:06;;;;;;;1.23;0.95;;;;;;;13.37;54.18;100200.13;4999339;28;20030;-68
2024/02/07 05:25:32;;;;;;;4.68;0.40;;;;;;;13.30;54.10;100198.28;4999652;28;20022;-67
2024/02/07 05:27:58;;;;;;;2.63;0.50;;;;;;;13.25;53.73;100206.84;5017359;28;20033;-67
2024/02/07 05:30:23;;;;;;;2.97;0.52;;;;;;;13.22;54.55;100207.16;4999528;28;20381;-67
2024/02/07 05:32:49;;;;;;;2.08;0.85;;;;;;;13.18;54.00;100216.53;4999390;28;20034;-67
2024/02/07 05:35:14;;;;;;;2.92;1.08;;;;;;;13.17;54.42;100217.56;4999145;28;20042;-67
2024/02/07 05:37:39;;;;;;;0.55;0.45;;;;;;;13.21;54.80;100226.97;4999381;28;20026;-67
2024/02/07 05:40:05;;;;;;;2.90;1.00;;;;;;;13.23;54.05;100226.84;4999505;28;20030;-67
2024/02/07 05:42:30;;;;;;;3.58;0.50;;;;;;;13.26;54.62;100235.41;4982202;28;20120;-67
2024/02/07 05:44:56;;;;;;;4.30;0.70;;;;;;;13.24;53.99;100223.13;4999130;28;20029;-67
2024/02/07 05:47:22;;;;;;;0.77;0.35;;;;;;;13.18;53.55;100232.66;4999659;28;20037;-67
2024/02/07 05:49:47;;;;;;;1.05;0.30;;;;;;;13.11;54.03;100231.63;5016769;28;20041;-66
2024/02/07 05:52:14;;;;;;;4.20;0.50;;;;;;;13.10;53.19;100240.69;4999263;28;20030;-66
2024/02/07 05:54:39;;;;;;;0.85;0.35;;;;;;;13.12;53.88;100237.88;4999254;28;20041;-67
2024/02/07 05:57:05;;;;;;;1.70;0.80;;;;;;;13.09;53.30;100239.00;4998514;28;20022;-66
2024/02/07 05:59:30;;;;;;;4.50;0.40;;;;;;;13.03;53.35;100239.63;4998650;28;20065;-67
2024/02/07 06:01:56;;;;;;;1.75;0.22;;;;;;;12.97;53.14;100242.94;5014915;28;20034;-67
2024/02/07 06:04:21;;;;;;;0.20;0.20;;;;;;;12.94;53.94;100251.34;5016191;28;20509;-67
2024/02/07 06:06:49;;;;;;;1.23;0.30;;;;;;;12.96;53.04;100246.63;4998905;28;20025;-67
2024/02/07 06:09:14;;;;;;;0.70;0.32;;;;;;;12.97;53.48;100242.09;4999059;28;20136;-67
2024/02/07 06:11:41;;;;;;;1.17;0.40;;;;;;;12.98;52.79;100252.69;4998576;28;20104;-68
2024/02/07 06:14:11;;;;;;;2.63;0.40;;;;;;;12.98;53.30;100241.13;4998535;28;20498;-67
2024/02/07 06:16:37;;;;;;;3.58;0.68;;;;;;;12.99;52.58;100243.63;5014850;28;20382;-66
2024/02/07 06:19:03;;;;;;;1.88;0.30;;;;;;;13.01;53.77;100247.00;4998500;28;20141;-66
2024/02/07 06:21:32;;;;;;;0.40;0.30;;;;;;;13.03;53.89;100255.75;4996645;28;20116;-66
2024/02/07 06:23:58;;;;;;;2.72;0.43;;;;;;;13.04;53.11;100257.44;4982244;28;20034;-67
2024/02/07 06:26:23;;;;;;;0.45;0.45;;;;;;;13.03;53.90;100271.91;5014683;28;20037;-66
2024/02/07 06:28:50;;;;;;;0.32;0.32;;;;;;;13.00;53.00;100269.53;4998075;28;20114;-66
2024/02/07 06:31:16;;;;;;;1.27;0.32;;;;;;;13.03;52.68;100265.66;4998506;28;20045;-66
2024/02/07 06:33:41;;;;;;;2.85;0.50;;;;;;;12.98;53.06;100276.88;4982187;28;20540;-66
2024/02/07 06:36:06;;;;;;;1.48;0.28;;;;;;;12.96;53.36;100284.28;5005122;28;20057;-70
2024/02/07 06:38:33;;;;;;;4.88;1.25;;;;;;;12.91;53.76;100273.16;5016473;28;20065;-67
2024/02/07 06:40:58;;;;;;;1.80;0.50;;;;;;;12.86;53.47;100286.22;5007779;28;20532;-68
2024/02/07 06:43:24;;;;;;;3.67;1.17;;;;;;;12.86;53.93;100302.34;5034737;28;20041;-67
2024/02/07 06:45:49;;;;;;;0.50;0.40;;;;;;;12.84;53.03;100309.75;5017598;28;20084;-66
2024/02/07 06:48:15;;;;;;;3.35;0.60;;;;;;;12.83;53.33;100291.91;5011370;28;20029;-66
2024/02/07 06:50:40;;;;;;;3.42;0.30;;;;;;;12.81;52.95;100302.00;5026083;28;20493;-66
2024/02/07 06:53:05;;;;;;;3.50;0.50;;;;;;;12.81;53.28;100296.59;5000888;28;20113;-66
2024/02/07 06:55:31;;;;;;;4.55;0.50;;;;;;;12.79;52.96;100296.75;5017510;28;20037;-67
2024/02/07 06:57:56;;;;;;;1.10;0.40;;;;;;;12.81;53.45;100305.50;5000776;28;20029;-66
2024/02/07 07:00:22;;;;;;;1.38;0.73;;;;;;;12.80;52.33;100305.66;5035065;28;20124;-66
2024/02/07 07:02:47;;;;;;;1.15;0.63;;;;;;;12.80;53.54;100311.03;5017323;28;20041;-66
2024/02/07 07:05:13;;;;;;;2.90;0.50;;;;;;;12.80;53.00;100311.03;5034768;28;20100;-67
2024/02/07 07:07:38;;;;;;;1.35;0.57;;;;;;;12.78;53.22;100313.91;5017432;28;20045;-67
2024/02/07 07:10:04;;;;;;;0.45;0.38;;;;;;;12.79;53.58;100330.84;5017195;28;20417;-66
2024/02/07 07:12:29;;;;;;;1.17;0.82;;;;;;;12.79;53.57;100333.53;5033456;28;20052;-66
2024/02/07 07:14:55;;;;;;;0.82;0.52;;;;;;;12.77;53.32;100331.00;5016856;28;20083;-66
2024/02/07 07:17:20;;;;;;;1.98;1.05;;;;;;;12.76;53.84;100332.00;5016898;28;20034;-67
2024/02/07 07:19:46;;;;;;;6.13;0.82;;;;;;;12.72;53.04;100327.94;5016807;28;20122;-66
2024/02/07 07:22:11;;;;;;;2.67;0.52;;;;;;;12.75;52.81;100332.16;5016911;28;20033;-65
2024/02/07 07:24:37;;;;;;;0.40;0.30;;;;;;;12.73;52.53;100335.00;5016821;28;20030;-66
2024/02/07 07:27:03;;;;;;;0.45;0.43;;;;;;;12.74;52.50;100330.47;5015798;28;20044;-66
2024/02/07 07:29:28;;;;;;;2.67;0.50;;;;;;;12.71;52.51;100333.47;5016660;28;20078;-66
2024/02/07 07:31:54;;;;;;;2.05;0.60;;;;;;;12.72;52.64;100337.84;5016934;28;20038;-66
2024/02/07 07:34:19;;;;;;;3.83;0.55;;;;;;;12.70;52.81;100339.84;5016691;28;20543;-65
2024/02/07 07:36:44;;;;;;;2.22;0.40;;;;;;;12.69;52.34;100333.63;5034132;28;20033;-67
2024/02/07 07:39:10;;;;;;;0.57;0.55;;;;;;;12.68;52.89;100339.13;5016906;28;20060;-66
2024/02/07 07:41:38;;;;;;;1.27;0.60;;;;;;;12.67;52.70;100350.91;5016954;28;20068;-67
2024/02/07 07:44:04;;;;;;;3.50;0.75;;;;;;;12.66;52.61;100357.28;5017085;28;20029;-66
2024/02/07 07:46:29;;;;;;;0.70;0.35;;;;;;;12.66;52.70;100355.44;5016581;28;20035;-66
2024/02/07 07:48:55;;;;;;;2.40;0.50;;;;;;;12.69;52.35;100359.66;5016686;28;20120;-66
2024/02/07 07:51:20;;;;;;;3.03;0.57;;;;;;;12.65;53.16;100360.94;5034258;28;20116;-66
2024/02/07 07:53:46;;;;;;;1.88;0.73;;;;;;;12.66;53.01;100359.97;5016724;28;20489;-66
2024/02/07 07:56:12;;;;;;;3.00;0.55;;;;;;;12.67;52.85;100362.47;5032426;28;20045;-67
2024/02/07 07:58:38;;;;;;;0.80;0.40;;;;;;;12.66;52.72;100358.13;5016533;28;20029;-66
2024/02/07 08:01:04;;;;;;;1.50;0.50;;;;;;;12.64;53.71;100362.81;5016388;28;20036;-67
2024/02/07 08:03:30;;;;;;;2.92;0.65;;;;;;;12.66;53.35;100363.50;5032577;28;20063;-67
2024/02/07 08:05:55;;;;;;;1.17;0.50;;;;;;;12.66;53.57;100359.97;5016459;28;20474;-67
2024/02/07 08:08:20;;;;;;;2.28;0.80;;;;;;;12.65;53.73;100348.34;5033574;28;20060;-67
2024/02/07 08:10:46;;;;;;;1.85;0.80;;;;;;;12.66;53.59;100351.91;5033894;28;20409;-66
2024/02/07 08:13:12;;;;;;;2.05;1.42;;;;;;;12.65;52.73;100358.25;5016775;28;20033;-67
2024/02/07 08:15:37;;;;;;;2.83;0.90;;;;;;;12.66;52.35;100371.56;5034229;28;20489;-67
2024/02/07 08:18:03;;;;;;;2.08;0.95;;;;;;;12.60;53.48;100360.56;5033147;28;20061;-67
2024/02/07 08:20:28;;;;;;;3.33;0.93;;;;;;;12.62;52.52;100372.00;5032573;28;20033;-67
2024/02/07 08:22:54;;;;;;;0.82;0.65;;;;;;;12.60;52.28;100377.53;5032752;28;20029;-67
2024/02/07 08:25:21;;;;;;;0.80;0.80;;;;;;;12.58;53.48;100374.16;5006822;28;20047;-68
2024/02/07 08:27:47;;;;;;;2.05;0.70;;;;;;;12.56;52.78;100386.06;5016812;28;20460;-68
2024/02/07 08:30:13;;;;;;;2.97;0.90;;;;;;;12.56;52.74;100394.13;5033474;28;20041;-67
2024/02/07 08:32:38;;;;;;;1.67;0.70;;;;;;;12.57;53.71;100398.47;5017108;28;20045;-67
2024/02/07 08:35:04;;;;;;;1.73;0.47;;;;;;;12.56;52.39;100402.19;5033052;28;20148;-67
2024/02/07 08:37:30;;;;;;;3.03;0.40;;;;;;;12.54;52.61;100404.16;5017713;28;20040;-67
2024/02/07 08:39:55;;;;;;;2.90;0.55;;;;;;;12.53;53.57;100403.34;5034070;28;20128;-67
2024/02/07 08:42:20;;;;;;;5.55;0.50;;;;;;;12.55;53.56;100400.50;5033774;28;20029;-67
2024/02/07 08:44:47;;;;;;;1.67;0.60;;;;;;;12.55;52.28;100395.97;5016228;28;20037;-67
2024/02/07 08:47:12;;;;;;;4.00;0.82;;;;;;;12.58;52.66;100394.81;5033332;28;20044;-66
2024/02/07 08:49:38;;;;;;;3.75;1.17;;;;;;;12.62;52.19;100393.50;5016159;28;20041;-68
2024/02/07 08:52:05;;;;;;;1.60;0.88;;;;;;;12.64;53.27;100399.59;5015851;28;20034;-67
2024/02/07 08:54:33;;;;;;;6.80;0.55;;;;;;;12.65;53.17;100406.63;5016034;28;20045;-67
2024/02/07 08:57:00;;;;;;;1.60;0.57;;;;;;;12.67;52.71;100401.97;5016259;28;20041;-66
2024/02/07 08:59:25;;;;;;;4.80;1.42;;;;;;;12.69;52.52;100403.50;5015760;28;20061;-67
2024/02/07 09:01:51;;;;;;;1.88;1.00;;;;;;;12.74;53.76;100400.34;5015797;28;20107;-66
2024/02/07 09:04:16;;;;;;;4.47;1.20;;;;;;;12.75;52.47;100396.66;5033498;28;20097;-66
2024/02/07 09:06:43;;;;;;;2.90;1.00;;;;;;;12.74;53.59;100390.44;5032407;28;20041;-66
2024/02/07 09:09:08;;;;;;;3.10;1.20;;;;;;;12.78;52.83;100401.72;5016011;28;20030;-66
2024/02/07 09:11:34;;;;;;;3.72;1.13;;;;;;;12.80;52.30;100388.97;5015709;28;20408;-66
2024/02/07 09:14:00;;;;;;;3.35;0.98;;;;;;;12.84;51.92;100401.13;5032161;28;20497;-65
2024/02/07 09:16:25;;;;;;;7.40;1.08;;;;;;;12.84;52.67;100395.75;5033928;28;20116;-66
2024/02/07 09:18:52;;;;;;;4.07;1.00;;;;;;;12.82;52.58;100389.66;5033675;28;20405;-65
2024/02/07 09:21:17;;;;;;;2.47;0.90;;;;;;;12.83;52.26;100394.91;5033143;28;20103;-66
2024/02/07 09:23:45;;;;;;;5.03;1.60;;;;;;;12.82;53.54;100397.72;5016179;28;20508;-67
2024/02/07 09:26:10;;;;;;;2.42;1.33;;;;;;;12.75;53.36;100410.09;4998788;28;20037;-67
2024/02/07 09:28:36;;;;;;;5.25;1.50;;;;;;;12.74;52.97;100416.47;5015490;28;20038;-67
2024/02/07 09:31:01;;;;;;;5.82;1.50;;;;;;;12.74;53.33;100421.84;5015811;28;20037;-66
2024/02/07 09:33:26;;;;;;;3.70;1.42;;;;;;;12.74;53.00;100420.00;5031854;28;20072;-67
2024/02/07 09:35:52;;;;;;;8.77;1.50;;;;;;;12.73;52.49;100421.00;5032789;28;20052;-67
2024/02/07 09:38:21;;;;;;;8.52;2.20;;;;;;;12.71;52.37;100422.16;5015863;28;20045;-66
2024/02/07 09:40:48;;;;;;;7.57;1.92;;;;;;;12.69;53.45;100424.16;5016129;28;20086;-67
2024/02/07 09:43:14;;;;;;;3.58;1.83;;;;;;;12.63;53.74;100430.13;5015816;28;20086;-68
2024/02/07 09:45:41;;;;;;;2.67;1.65;;;;;;;12.56;52.21;100434.44;5016376;28;20060;-68
2024/02/07 09:48:22;;;;;;;7.03;1.63;;;;;;;12.53;52.64;100445.47;5016838;28;20040;-68
2024/02/07 09:50:49;;;;;;;3.20;1.50;;;;;;;12.48;52.56;100432.47;5018812;28;20438;-68
2024/02/07 09:53:16;;;;;;;6.20;1.00;;;;;;;12.43;52.87;100442.84;5019463;28;20378;-68
2024/02/07 09:55:42;;;;;;;3.65;0.65;;;;;;;12.45;53.76;100448.06;5018079;28;20045;-68
2024/02/07 09:58:09;;;;;;;1.75;0.60;;;;;;;12.42;52.88;100454.59;5025129;28;20417;-68
2024/02/07 10:00:36;;;;;;;2.47;0.82;;;;;;;12.40;52.89;100466.44;5019024;28;20038;-69
2024/02/07 10:03:06;;;;;;;5.25;0.88;;;;;;;12.41;52.42;100463.63;5036450;28;20034;-68
2024/02/07 10:05:32;;;;;;;5.80;0.88;;;;;;;12.39;52.67;100462.09;4984548;28;20048;-68
2024/02/07 10:07:57;;;;;;;3.03;1.15;;;;;;;12.42;52.82;100461.81;4999772;28;20397;-68
2024/02/07 10:10:23;;;;;;;3.97;1.15;;;;;;;12.43;52.52;100460.78;5015205;28;20040;-68
2024/02/07 10:12:54;;;;;;;2.63;1.20;;;;;;;12.43;53.18;100458.94;5016298;28;20466;-68
2024/02/07 10:15:19;;;;;;;3.83;1.40;;;;;;;12.47;53.17;100470.25;5016769;28;20030;-68
2024/02/07 10:17:45;;;;;;;2.92;0.90;;;;;;;12.46;53.00;100465.84;4999196;28;20030;-68
2024/02/07 10:20:11;;;;;;;4.03;0.88;;;;;;;12.47;53.18;100468.41;4999228;28;20405;-68
2024/02/07 10:22:40;;;;;;;3.35;0.73;;;;;;;12.46;52.24;100466.72;4999015;28;20116;-68
2024/02/07 10:25:13;;;;;;;6.22;0.90;;;;;;;12.46;52.29;100471.22;4999162;28;20036;-68
2024/02/07 10:27:38;;;;;;;3.92;0.50;;;;;;;12.48;53.30;100474.63;4998980;28;20046;-67
2024/02/07 10:30:08;;;;;;;4.78;0.85;;;;;;;12.50;52.60;100467.28;4998207;28;20080;-68
2024/02/07 10:32:34;;;;;;;4.22;0.90;;;;;;;12.54;52.04;100479.38;4999289;28;20034;-68
2024/02/07 10:35:00;;;;;;;5.82;0.68;;;;;;;12.56;52.11;100477.41;4982974;28;20112;-68
2024/02/07 10:37:26;;;;;;;4.65;0.68;;;;;;;12.55;52.99;100476.56;4999236;28;20065;-67
2024/02/07 10:40:02;;;;;;;6.13;1.10;;;;;;;12.57;52.24;100471.88;4996631;28;20033;-68
2024/02/07 10:42:27;;;;;;;2.05;0.75;;;;;;;12.58;52.19;100464.66;5015030;28;20037;-68
2024/02/07 10:45:13;;;;;;;3.10;0.80;;;;;;;12.52;53.08;100451.84;4998581;28;20033;-68
2024/02/07 10:47:39;;;;;;;1.63;0.93;;;;;;;12.58;52.08;100464.66;5016438;28;20397;-68
2024/02/07 10:50:08;;;;;;;3.10;1.10;;;;;;;12.58;52.78;100465.53;4999224;28;20026;-68
2024/02/07 10:52:33;;;;;;;8.52;1.33;;;;;;;12.59;53.26;100461.00;5015256;28;20038;-67
2024/02/07 10:54:59;;;;;;;7.20;1.20;;;;;;;12.59;52.24;100461.00;4998940;28;20033;-67
2024/02/07 10:57:35;;;;;;;6.68;1.25;;;;;;;12.59;52.60;100448.38;4998133;28;20057;-66
2024/02/07 11:00:02;;;;;;;5.07;0.93;;;;;;;12.52;52.42;100435.72;5014814;28;20049;-66
2024/02/07 11:02:27;;;;;;;3.65;0.90;;;;;;;12.48;52.11;100442.41;5015472;28;20088;-67
2024/02/07 11:04:53;;;;;;;1.83;0.85;;;;;;;12.44;52.27;100451.75;5007415;28;20452;-66
2024/02/07 11:07:19;;;;;;;6.22;1.20;;;;;;;12.42;52.33;100437.63;5034023;28;20373;-65
2024/02/07 11:09:45;;;;;;;2.65;0.75;;;;;;;12.38;52.79;100430.84;5017142;28;20057;-65
2024/02/07 11:12:12;;;;;;;5.22;0.70;;;;;;;12.37;53.51;100440.75;5016751;28;20515;-65
2024/02/07 11:14:39;;;;;;;2.92;0.80;;;;;;;12.34;53.01;100440.22;5017008;28;20037;-64
2024/02/07 11:17:05;;;;;;;3.60;1.05;;;;;;;12.28;53.39;100437.13;5017039;28;20116;-66
2024/02/07 11:19:30;;;;;;;4.55;1.23;;;;;;;12.26;53.09;100449.00;5016969;28;20111;-66
2024/02/07 11:21:56;;;;;;;2.30;0.98;;;;;;;12.19;53.10;100440.72;5017506;28;20030;-67
2024/02/07 11:24:23;;;;;;;5.72;1.75;;;;;;;12.14;52.38;100434.94;5017563;28;20400;-67
2024/02/07 11:26:49;;;;;;;4.07;1.40;;;;;;;12.11;52.81;100429.88;5015422;28;20048;-67
2024/02/07 11:29:15;;;;;;;7.97;1.35;;;;;;;12.07;52.28;100417.75;5000523;28;20033;-67
2024/02/07 11:31:43;;;;;;;5.38;2.50;;;;;;;12.06;53.14;100421.41;5017586;28;20033;-67
2024/02/07 11:34:09;;;;;;;5.57;1.65;;;;;;;11.99;52.93;100409.59;5017507;28;20400;-67
2024/02/07 11:36:34;;;;;;;4.00;1.88;;;;;;;11.96;52.52;100412.56;5034705;28;20035;-67
2024/02/07 11:39:00;;;;;;;2.63;1.00;;;;;;;11.94;53.28;100421.75;5017397;28;20083;-66
2024/02/07 11:41:27;;;;;;;5.05;0.57;;;;;;;11.90;52.51;100421.19;5017445;28;20112;-67
2024/02/07 11:44:06;;;;;;;0.93;0.30;;;;;;;11.90;52.12;100423.88;5016149;28;20043;-67
2024/02/07 11:46:31;;;;;;;2.63;0.52;;;;;;;11.85;52.14;100420.81;5033239;28;20052;-68
2024/02/07 11:48:59;;;;;;;1.50;0.65;;;;;;;11.76;52.09;100410.09;5016849;28;20111;-68
2024/02/07 11:51:25;;;;;;;3.90;0.50;;;;;;;11.71;53.26;100405.19;5033353;28;20447;-68
2024/02/07 11:53:57;;;;;;;1.27;0.40;;;;;;;11.71;53.03;100405.19;5034454;28;20033;-68
2024/02/07 11:56:22;;;;;;;3.40;0.68;;;;;;;11.65;52.16;100395.84;5017009;28;20037;-69
2024/02/07 11:58:52;;;;;;;1.77;0.40;;;;;;;11.61;52.29;100388.25;5033400;28;20103;-68
2024/02/07 12:01:18;;;;;;;0.80;0.40;;;;;;;11.57;51.87;100384.16;5016985;28;20034;-68
2024/02/07 12:03:43;;;;;;;0.10;0.10;;;;;;;11.51;51.97;100379.38;5033142;28;20076;-68
2024/02/07 12:06:10;;;;;;;4.63;0.50;;;;;;;11.51;52.50;100374.00;5017201;28;20033;-68
2024/02/07 12:08:36;;;;;;;0.90;0.40;;;;;;;11.46;52.52;100369.09;5034137;28;20041;-68
2024/02/07 12:11:04;;;;;;;5.88;0.38;;;;;;;11.40;52.65;100366.16;5032992;28;20404;-68
2024/02/07 12:13:29;;;;;;;0.28;0.20;;;;;;;11.36;51.75;100362.91;5032861;28;20511;-69
2024/02/07 12:15:58;;;;;;;3.55;0.43;;;;;;;11.37;52.85;100366.44;5016903;28;20109;-67
2024/02/07 12:18:24;;;;;;;0.43;0.30;;;;;;;11.35;51.90;100361.22;5016461;28;20442;-67
2024/02/07 12:20:50;;;;;;;1.88;0.35;;;;;;;11.41;52.71;100365.16;5016538;28;20045;-66
2024/02/07 12:23:16;;;;;;;2.53;0.35;;;;;;;11.42;52.88;100356.09;5016260;28;20037;-65
2024/02/07 12:25:42;;;;;;;2.38;0.32;;;;;;;11.43;53.20;100353.28;5016014;28;20045;-65